Time;durP1;ratioP1;P1;durP2;ratioP2;P2;SDS_P1;SDS_P2;PMS_P1;PMS_P2;Temp;Humidity;BMP_temperature;BMP_pressure;BME280_temperature;BME280_humidity;BME280_pressure;Samples;Min_cycle;Max_cycle;Signal;HPM_P1;HPM_P2
2021/08/12 00:01:42;;;;;;;;;17.33;16.00;;;;;;;;2566117;30;149301;-74
2021/08/12 00:04:11;;;;;;;;;16.33;16.33;;;;;;;;2565928;30;151108;-75
2021/08/12 00:06:39;;;;;;;;;16.33;16.33;;;;;;;;2567610;30;151234;-75
2021/08/12 00:09:07;;;;;;;;;18.00;17.00;;;;;;;;2564857;38;149583;-75
2021/08/12 00:11:36;;;;;;;;;20.00;18.67;;;;;;;;2568360;30;150543;-75
2021/08/12 00:14:04;;;;;;;;;17.67;16.00;;;;;;;;2565711;38;151881;-75
2021/08/12 00:16:35;;;;;;;;;17.00;16.33;;;;;;;;2570551;30;149454;-75
2021/08/12 00:19:03;;;;;;;;;19.67;18.67;;;;;;;;2566213;30;151586;-75
2021/08/12 00:21:32;;;;;;;;;21.00;20.33;;;;;;;;2565343;38;149570;-75
2021/08/12 00:24:00;;;;;;;;;15.33;15.33;;;;;;;;2567569;30;151647;-75
2021/08/12 00:26:28;;;;;;;;;24.25;22.75;;;;;;;;2563940;30;153084;-76
2021/08/12 00:28:57;;;;;;;;;17.33;15.00;;;;;;;;2566371;38;150343;-76
2021/08/12 00:31:25;;;;;;;;;17.00;16.00;;;;;;;;2566290;30;151197;-76
2021/08/12 00:33:55;;;;;;;;;17.67;17.00;;;;;;;;2566339;30;152105;-76
2021/08/12 00:36:24;;;;;;;;;19.00;15.00;;;;;;;;2565391;30;149268;-75
2021/08/12 00:38:52;;;;;;;;;14.33;14.00;;;;;;;;2568565;38;151608;-76
2021/08/12 00:41:21;;;;;;;;;19.67;19.67;;;;;;;;2567226;30;149847;-75
2021/08/12 00:43:49;;;;;;;;;18.00;16.67;;;;;;;;2566563;30;151257;-75
2021/08/12 00:46:17;;;;;;;;;17.33;16.00;;;;;;;;2564760;38;151069;-75
2021/08/12 00:48:46;;;;;;;;;18.00;18.00;;;;;;;;2566160;30;149598;-75
2021/08/12 00:51:15;;;;;;;;;15.33;15.33;;;;;;;;2564263;38;150656;-75
2021/08/12 00:53:44;;;;;;;;;15.33;15.33;;;;;;;;2564948;30;152491;-75
2021/08/12 00:56:12;;;;;;;;;15.00;14.00;;;;;;;;2567277;30;149677;-75
2021/08/12 00:58:40;;;;;;;;;16.00;15.00;;;;;;;;2564510;38;151470;-76
2021/08/12 01:01:09;;;;;;;;;16.67;15.67;;;;;;;;2569375;30;151691;-78
2021/08/12 06:08:14;;;;;;;;;13.25;10.75;;;;;;;;2570602;38;149525;-73
2021/08/12 06:10:43;;;;;;;;;15.25;13.50;;;;;;;;2571803;30;151058;-76
2021/08/12 06:13:11;;;;;;;;;16.75;15.25;;;;;;;;2571211;30;149258;-76
2021/08/12 06:15:39;;;;;;;;;10.75;10.75;;;;;;;;2569701;30;152648;-74
2021/08/12 06:18:08;;;;;;;;;8.75;7.25;;;;;;;;2569571;30;151009;-75
2021/08/12 06:20:37;;;;;;;;;14.25;11.00;;;;;;;;2569277;38;149542;-73
2021/08/12 06:23:05;;;;;;;;;13.00;11.25;;;;;;;;2568533;30;151372;-71
2021/08/12 06:25:35;;;;;;;;;14.50;12.75;;;;;;;;2571412;30;151248;-73
2021/08/12 06:28:03;;;;;;;;;11.00;10.00;;;;;;;;2571646;30;149550;-76
2021/08/12 06:30:32;;;;;;;;;14.25;14.25;;;;;;;;2569548;38;151825;-71
2021/08/12 06:33:00;;;;;;;;;13.75;13.00;;;;;;;;2571220;30;149617;-72
2021/08/12 06:35:31;;;;;;;;;15.50;14.75;;;;;;;;2568506;30;151361;-71
2021/08/12 06:38:00;;;;;;;;;18.00;12.75;;;;;;;;2570388;30;150103;-77
2021/08/12 06:40:29;;;;;;;;;13.00;13.00;;;;;;;;2568494;38;149312;-73
2021/08/12 06:42:58;;;;;;;;;15.50;13.00;;;;;;;;2573136;30;150521;-72
2021/08/12 06:45:27;;;;;;;;;14.50;12.00;;;;;;;;2569156;30;152085;-74
2021/08/12 06:47:57;;;;;;;;;12.75;12.75;;;;;;;;2569290;30;149298;-76
2021/08/12 06:50:25;;;;;;;;;15.25;14.75;;;;;;;;2569768;30;151327;-75
2021/08/12 06:52:54;;;;;;;;;18.00;14.00;;;;;;;;2571248;30;149164;-76
2021/08/12 06:55:22;;;;;;;;;15.25;14.00;;;;;;;;2566615;38;151605;-75
2021/08/12 06:57:50;;;;;;;;;14.00;12.00;;;;;;;;2569011;30;151128;-76
2021/08/12 07:00:21;;;;;;;;;16.25;14.75;;;;;;;;2568213;30;150572;-75
2021/08/12 07:02:49;;;;;;;;;14.00;14.00;;;;;;;;2569216;38;150838;-75
2021/08/12 07:05:18;;;;;;;;;16.50;12.00;;;;;;;;2569812;30;151452;-75
2021/08/12 07:07:46;;;;;;;;;16.75;14.75;;;;;;;;2569983;30;149576;-73
2021/08/12 07:10:15;;;;;;;;;20.00;16.75;;;;;;;;2567817;30;150492;-77
2021/08/12 07:12:43;;;;;;;;;15.50;13.50;;;;;;;;2572428;30;152217;-74
2021/08/12 07:15:11;;;;;;;;;14.75;13.25;;;;;;;;2572547;30;150423;-74
2021/08/12 07:17:41;;;;;;;;;12.00;11.75;;;;;;;;2568466;30;151829;-72
2021/08/12 07:20:10;;;;;;;;;23.00;19.25;;;;;;;;2565584;30;149145;-71
2021/08/12 07:22:39;;;;;;;;;15.75;15.25;;;;;;;;2566191;38;151404;-72
2021/08/12 07:25:07;;;;;;;;;17.50;15.00;;;;;;;;2564517;38;151237;-72
2021/08/12 07:27:36;;;;;;;;;13.00;13.00;;;;;;;;2567698;30;150262;-73
2021/08/12 07:30:04;;;;;;;;;15.00;14.00;;;;;;;;2567181;30;150977;-73
2021/08/12 07:32:33;;;;;;;;;18.25;15.25;;;;;;;;2566928;30;151710;-73
2021/08/12 07:35:02;;;;;;;;;17.75;14.50;;;;;;;;2568975;30;149614;-73
2021/08/12 07:37:31;;;;;;;;;13.00;11.67;;;;;;;;2565493;38;151459;-73
2021/08/12 07:39:59;;;;;;;;;18.33;14.00;;;;;;;;2566526;30;150759;-74
2021/08/12 07:42:27;;;;;;;;;14.67;12.33;;;;;;;;2565323;38;150613;-77
2021/08/12 07:45:00;;;;;;;;;14.67;13.00;;;;;;;;2565451;30;151603;-76
2021/08/12 07:47:30;;;;;;;;;17.33;14.00;;;;;;;;2564942;30;150622;-76
2021/08/12 07:49:58;;;;;;;;;13.00;13.00;;;;;;;;2564946;30;151358;-72
2021/08/12 07:52:28;;;;;;;;;14.00;12.33;;;;;;;;2566934;30;152132;-74
2021/08/12 07:54:57;;;;;;;;;12.33;12.33;;;;;;;;2567230;30;149524;-72
2021/08/12 07:57:25;;;;;;;;;17.00;14.00;;;;;;;;2566236;38;151347;-75
2021/08/12 07:59:53;;;;;;;;;13.00;13.00;;;;;;;;2563822;30;149458;-73
2021/08/12 08:02:22;;;;;;;;;14.00;14.00;;;;;;;;2563940;30;150343;-75
2021/08/12 08:04:50;;;;;;;;;13.00;13.00;;;;;;;;2564583;38;152018;-73
2021/08/12 08:07:18;;;;;;;;;13.00;13.00;;;;;;;;2567683;30;150202;-73
2021/08/12 08:09:48;;;;;;;;;19.00;15.33;;;;;;;;2564331;38;150851;-73
2021/08/12 08:12:17;;;;;;;;;16.00;13.33;;;;;;;;2567350;30;151974;-74
2021/08/12 08:14:45;;;;;;;;;12.33;11.67;;;;;;;;2565038;38;149460;-73
2021/08/12 08:17:13;;;;;;;;;11.00;11.00;;;;;;;;2566864;30;151432;-73
2021/08/12 08:19:42;;;;;;;;;16.67;14.00;;;;;;;;2567870;38;149606;-72
2021/08/12 08:22:10;;;;;;;;;12.67;12.00;;;;;;;;2566032;30;150470;-73
2021/08/12 08:24:38;;;;;;;;;15.33;13.33;;;;;;;;2567087;30;151799;-69
2021/08/12 08:27:08;;;;;;;;;12.33;11.67;;;;;;;;2562586;38;149594;-72
2021/08/12 08:29:36;;;;;;;;;14.67;14.67;;;;;;;;2564850;38;151335;-71
2021/08/12 08:32:05;;;;;;;;;13.00;11.00;;;;;;;;2567730;30;151922;-70
2021/08/12 08:34:33;;;;;;;;;12.33;12.33;;;;;;;;2564660;30;150384;-70
2021/08/12 08:37:01;;;;;;;;;14.00;12.67;;;;;;;;2567755;30;150635;-72
2021/08/12 08:39:30;;;;;;;;;12.00;12.00;;;;;;;;2566503;38;151002;-70
2021/08/12 08:42:03;;;;;;;;;14.00;13.25;;;;;;;;2568400;30;150600;-71
2021/08/12 08:44:33;;;;;;;;;13.75;13.25;;;;;;;;2564014;30;149830;-70
2021/08/12 08:47:02;;;;;;;;;12.75;12.00;;;;;;;;2564150;38;149217;-70
2021/08/12 08:49:31;;;;;;;;;15.50;14.00;;;;;;;;2566255;38;151382;-71
2021/08/12 08:52:00;;;;;;;;;12.50;11.25;;;;;;;;2566363;30;151133;-71
2021/08/12 08:54:28;;;;;;;;;10.75;10.75;;;;;;;;2566404;30;149401;-71
2021/08/12 08:56:57;;;;;;;;;12.50;12.00;;;;;;;;2563567;30;151317;-70
2021/08/12 08:59:26;;;;;;;;;12.50;12.50;;;;;;;;2567357;30;153603;-71
2021/08/12 09:01:55;;;;;;;;;11.50;11.00;;;;;;;;2568509;30;149620;-70
2021/08/12 09:04:24;;;;;;;;;13.00;11.25;;;;;;;;2563703;38;151912;-71
2021/08/12 09:06:52;;;;;;;;;13.50;11.00;;;;;;;;2565474;38;149718;-71
2021/08/12 09:09:20;;;;;;;;;15.75;14.00;;;;;;;;2565129;38;150639;-70
2021/08/12 09:11:49;;;;;;;;;14.00;13.00;;;;;;;;2566760;30;151904;-72
2021/08/12 09:14:32;;;;;;;;;12.00;11.25;;;;;;;;2567119;30;150439;-74
2021/08/12 09:17:02;;;;;;;;;15.50;14.25;;;;;;;;2564065;30;151431;-73
2021/08/12 09:19:30;;;;;;;;;15.00;13.75;;;;;;;;2562579;38;151889;-72
2021/08/12 09:22:03;;;;;;;;;14.00;12.50;;;;;;;;2563808;30;150344;-73
2021/08/12 09:24:32;;;;;;;;;15.00;14.00;;;;;;;;2569003;30;151708;-72
2021/08/12 09:27:01;;;;;;;;;14.75;14.25;;;;;;;;2566937;30;149575;-72
2021/08/12 09:29:31;;;;;;;;;14.00;13.25;;;;;;;;2563841;38;152819;-72
2021/08/12 09:32:01;;;;;;;;;12.75;11.75;;;;;;;;2562550;30;151109;-72
2021/08/12 09:34:43;;;;;;;;;15.25;14.75;;;;;;;;2563883;30;149551;-73
2021/08/12 09:37:12;;;;;;;;;15.00;15.00;;;;;;;;2564732;30;152173;-73
2021/08/12 09:39:41;;;;;;;;;15.25;15.00;;;;;;;;2565343;30;151293;-74
2021/08/12 09:42:11;;;;;;;;;14.75;14.00;;;;;;;;2567505;30;149763;-72
2021/08/12 09:44:42;;;;;;;;;17.25;16.00;;;;;;;;2563826;30;151263;-72
2021/08/12 09:47:12;;;;;;;;;12.67;11.67;;;;;;;;2568887;30;151029;-71
2021/08/12 09:49:42;;;;;;;;;18.00;17.00;;;;;;;;2561489;38;151276;-72
2021/08/12 09:52:25;;;;;;;;;21.33;20.00;;;;;;;;2564675;30;152052;-71
2021/08/12 09:55:00;;;;;;;;;12.75;10.50;;;;;;;;2565610;30;149425;-72
2021/08/12 09:57:41;;;;;;;;;14.00;13.00;;;;;;;;2565685;30;151206;-73
2021/08/12 10:00:10;;;;;;;;;15.67;14.33;;;;;;;;2567489;30;151153;-72
2021/08/12 10:02:39;;;;;;;;;14.33;14.33;;;;;;;;2565517;30;149747;-71
2021/08/12 10:05:08;;;;;;;;;17.33;14.33;;;;;;;;2562476;30;150684;-72
2021/08/12 10:07:39;;;;;;;;;17.00;15.33;;;;;;;;2565731;30;151257;-73
2021/08/12 10:10:11;;;;;;;;;15.00;13.33;;;;;;;;2565994;30;149671;-73
2021/08/12 10:12:42;;;;;;;;;14.00;14.00;;;;;;;;2565910;30;152306;-72
2021/08/12 10:15:12;;;;;;;;;12.00;12.00;;;;;;;;2564706;30;149771;-72
2021/08/12 10:17:42;;;;;;;;;14.67;11.67;;;;;;;;2563778;30;151377;-72
2021/08/12 10:20:12;;;;;;;;;16.00;12.67;;;;;;;;2566999;30;151292;-71
2021/08/12 10:22:42;;;;;;;;;14.67;13.67;;;;;;;;2563833;38;149420;-71
2021/08/12 10:25:13;;;;;;;;;14.33;13.67;;;;;;;;2565124;38;151334;-72
2021/08/12 10:27:42;;;;;;;;;14.67;14.00;;;;;;;;2563000;38;152081;-73
2021/08/12 10:30:12;;;;;;;;;12.33;12.33;;;;;;;;2568717;30;149579;-71
2021/08/12 10:32:43;;;;;;;;;12.33;10.67;;;;;;;;2564511;30;152022;-71
2021/08/12 10:35:11;;;;;;;;;7.67;7.67;;;;;;;;2565714;30;149910;-72
2021/08/12 10:37:41;;;;;;;;;8.67;8.00;;;;;;;;2563465;38;150502;-73
2021/08/12 10:40:11;;;;;;;;;9.00;8.00;;;;;;;;2566615;30;151678;-74
2021/08/12 10:42:40;;;;;;;;;9.00;8.00;;;;;;;;2566813;30;149661;-72
2021/08/12 10:45:09;;;;;;;;;7.67;5.67;;;;;;;;2567280;30;150750;-71
2021/08/12 10:47:42;;;;;;;;;8.00;8.00;;;;;;;;2563741;38;151435;-72
2021/08/12 10:50:27;;;;;;;;;14.67;13.00;;;;;;;;2564715;30;150068;-72
2021/08/12 10:53:10;;;;;;;;;13.33;12.67;;;;;;;;2568999;30;150518;-73
2021/08/12 10:55:59;;;;;;;;;12.00;12.00;;;;;;;;2564503;38;149773;-73
2021/08/12 10:58:54;;;;;;;;;13.67;12.33;;;;;;;;2566598;38;151739;-73
2021/08/12 11:01:33;;;;;;;;;15.00;15.00;;;;;;;;2564629;38;151834;-73
2021/08/12 11:04:04;;;;;;;;;15.33;15.33;;;;;;;;2565865;38;149792;-74
2021/08/12 11:06:46;;;;;;;;;12.33;10.67;;;;;;;;2565158;38;151361;-72
2021/08/12 11:09:16;;;;;;;;;14.33;13.00;;;;;;;;2566771;30;152045;-73
2021/08/12 11:12:08;;;;;;;;;14.67;13.00;;;;;;;;2565847;30;149370;-73
2021/08/12 11:14:50;;;;;;;;;14.67;13.67;;;;;;;;2568559;30;151407;-73
2021/08/12 11:17:20;;;;;;;;;10.67;10.00;;;;;;;;2568518;30;152046;-74
2021/08/12 11:19:49;;;;;;;;;15.00;13.33;;;;;;;;2563132;38;151282;-75
2021/08/12 11:22:31;;;;;;;;;16.00;13.67;;;;;;;;2567310;30;151125;-75
2021/08/12 11:24:59;;;;;;;;;13.33;13.00;;;;;;;;2565912;30;150660;-73
2021/08/12 11:27:43;;;;;;;;;9.33;9.00;;;;;;;;2564218;38;151316;-75
2021/08/12 11:30:26;;;;;;;;;13.00;13.00;;;;;;;;2566182;30;151957;-73
2021/08/12 11:33:09;;;;;;;;;15.00;13.67;;;;;;;;2565209;30;149509;-74
2021/08/12 11:35:52;;;;;;;;;14.00;13.00;;;;;;;;2567567;30;150846;-76
2021/08/12 11:38:22;;;;;;;;;5.33;3.00;;;;;;;;2567454;30;151267;-74
2021/08/12 11:40:50;;;;;;;;;5.33;5.33;;;;;;;;2567061;38;149405;-75
2021/08/12 11:43:19;;;;;;;;;12.33;12.33;;;;;;;;2562399;38;151193;-75
2021/08/12 11:45:47;;;;;;;;;12.00;12.00;;;;;;;;2568310;30;149572;-74
2021/08/12 11:48:16;;;;;;;;;14.33;10.33;;;;;;;;2563586;38;151308;-75
2021/08/12 11:50:45;;;;;;;;;13.33;11.33;;;;;;;;2563138;38;152243;-77
2021/08/12 11:53:15;;;;;;;;;14.67;13.00;;;;;;;;2564551;38;149650;-76
2021/08/12 11:55:44;;;;;;;;;10.67;10.33;;;;;;;;2562838;38;150642;-75
2021/08/12 11:58:20;;;;;;;;;12.00;12.00;;;;;;;;2567044;30;151595;-75
2021/08/12 12:00:48;;;;;;;;;13.67;13.67;;;;;;;;2567475;30;150131;-73
2021/08/12 12:03:29;;;;;;;;;12.00;11.00;;;;;;;;2567851;30;151390;-75
2021/08/12 12:05:57;;;;;;;;;13.00;12.00;;;;;;;;2566258;30;149558;-75
2021/08/12 12:08:29;;;;;;;;;12.33;11.00;;;;;;;;2567439;30;151494;-75
2021/08/12 12:11:08;;;;;;;;;6.33;6.33;;;;;;;;2566208;30;151707;-77
2021/08/12 12:13:37;;;;;;;;;7.00;6.00;;;;;;;;2564729;30;149445;-77
2021/08/12 12:16:09;;;;;;;;;6.00;5.67;;;;;;;;2566201;38;151125;-77
2021/08/12 12:18:39;;;;;;;;;7.00;7.00;;;;;;;;2564725;38;152061;-76
2021/08/12 12:21:08;;;;;;;;;6.33;5.00;;;;;;;;2566866;30;149752;-77
2021/08/12 12:23:37;;;;;;;;;6.67;6.00;;;;;;;;2567226;30;151743;-76
2021/08/12 12:26:12;;;;;;;;;7.67;7.67;;;;;;;;2567220;30;151181;-77
2021/08/12 12:28:43;;;;;;;;;6.00;6.00;;;;;;;;2563475;38;150869;-77
2021/08/12 12:31:15;;;;;;;;;6.33;6.33;;;;;;;;2566899;30;151245;-76
2021/08/12 12:33:43;;;;;;;;;9.67;9.67;;;;;;;;2563892;30;149773;-77
2021/08/12 12:36:12;;;;;;;;;9.33;9.00;;;;;;;;2565927;30;150563;-75
2021/08/12 12:38:40;;;;;;;;;8.67;8.67;;;;;;;;2565325;30;151945;-74
2021/08/12 12:41:12;;;;;;;;;9.00;9.00;;;;;;;;2567246;30;149682;-74
2021/08/12 12:43:40;;;;;;;;;9.33;9.00;;;;;;;;2566343;38;150485;-74
2021/08/12 12:46:08;;;;;;;;;11.00;10.00;;;;;;;;2567609;38;152229;-74
2021/08/12 12:48:38;;;;;;;;;10.33;10.00;;;;;;;;2565902;38;150535;-74
2021/08/12 12:51:07;;;;;;;;;10.33;10.33;;;;;;;;2567801;30;151216;-73
2021/08/12 12:53:37;;;;;;;;;10.00;10.00;;;;;;;;2567301;30;149410;-74
2021/08/12 12:56:06;;;;;;;;;13.33;12.33;;;;;;;;2567454;30;151161;-73
2021/08/12 12:58:39;;;;;;;;;12.67;11.67;;;;;;;;2567339;30;151974;-74
2021/08/12 13:01:11;;;;;;;;;10.67;10.67;;;;;;;;2568610;30;149224;-74
2021/08/12 13:03:40;;;;;;;;;9.67;9.67;;;;;;;;2565273;30;151366;-74
2021/08/12 13:06:10;;;;;;;;;9.00;9.00;;;;;;;;2563879;38;151941;-75
2021/08/12 13:08:39;;;;;;;;;9.67;9.00;;;;;;;;2567415;30;150480;-75
2021/08/12 13:11:08;;;;;;;;;10.67;10.00;;;;;;;;2567183;30;152279;-73
2021/08/12 13:16:40;;;;;;;;;11.33;10.00;;;;;;;;2563641;38;151273;-76
2021/08/12 13:19:29;;;;;;;;;12.00;12.00;;;;;;;;2563391;30;152265;-74
2021/08/12 13:21:59;;;;;;;;;11.67;11.00;;;;;;;;2566795;30;149494;-74
2021/08/12 13:24:37;;;;;;;;;9.67;9.00;;;;;;;;2566085;30;151203;-75
2021/08/12 13:27:06;;;;;;;;;12.67;11.67;;;;;;;;2565456;38;151134;-73
2021/08/12 13:29:42;;;;;;;;;12.00;12.00;;;;;;;;2563833;38;150424;-73
2021/08/12 13:32:11;;;;;;;;;13.00;12.33;;;;;;;;2567113;30;151627;-72
2021/08/12 13:34:41;;;;;;;;;15.33;13.00;;;;;;;;2565974;30;149321;-73
2021/08/12 13:37:09;;;;;;;;;12.00;11.67;;;;;;;;2566043;30;150604;-73
2021/08/12 13:39:38;;;;;;;;;16.00;13.00;;;;;;;;2564240;30;150944;-72
2021/08/12 13:42:07;;;;;;;;;8.00;7.00;;;;;;;;2565455;38;149652;-72
2021/08/12 13:44:38;;;;;;;;;14.00;13.00;;;;;;;;2565632;31;151618;-72
2021/08/12 13:47:07;;;;;;;;;15.33;12.00;;;;;;;;2565039;30;152080;-72
2021/08/12 13:49:36;;;;;;;;;11.00;11.00;;;;;;;;2568773;30;149693;-72
2021/08/12 13:52:13;;;;;;;;;11.67;11.00;;;;;;;;2567415;30;151439;-72
2021/08/12 13:54:43;;;;;;;;;14.00;11.67;;;;;;;;2567946;30;152684;-72
2021/08/12 13:57:11;;;;;;;;;12.00;11.33;;;;;;;;2564187;38;150568;-73
2021/08/12 13:59:41;;;;;;;;;10.33;10.33;;;;;;;;2566800;30;151186;-72
2021/08/12 14:02:09;;;;;;;;;15.00;14.67;;;;;;;;2566010;30;149634;-72
2021/08/12 14:04:40;;;;;;;;;14.33;13.00;;;;;;;;2563388;38;150689;-72
2021/08/12 14:07:08;;;;;;;;;15.00;13.33;;;;;;;;2566916;30;151870;-72
2021/08/12 14:09:37;;;;;;;;;16.00;13.00;;;;;;;;2567227;30;149238;-72
2021/08/12 14:12:05;;;;;;;;;13.67;11.33;;;;;;;;2568177;30;150646;-73
2021/08/12 14:14:33;;;;;;;;;12.00;10.00;;;;;;;;2564059;30;151441;-73
2021/08/12 14:17:03;;;;;;;;;12.00;12.00;;;;;;;;2570003;30;149676;-73
2021/08/12 14:19:31;;;;;;;;;9.00;8.00;;;;;;;;2567977;30;151032;-73
2021/08/12 14:22:00;;;;;;;;;7.00;7.00;;;;;;;;2568501;30;149602;-73
2021/08/12 14:24:28;;;;;;;;;11.00;9.00;;;;;;;;2565299;30;151313;-73
2021/08/12 14:26:57;;;;;;;;;12.33;11.00;;;;;;;;2565623;30;152006;-73
2021/08/12 14:29:25;;;;;;;;;12.33;11.00;;;;;;;;2564832;30;149660;-71
2021/08/12 14:31:53;;;;;;;;;12.00;9.00;;;;;;;;2564798;38;151152;-72
2021/08/12 14:34:26;;;;;;;;;11.33;11.00;;;;;;;;2567488;30;151561;-73
2021/08/12 14:36:54;;;;;;;;;12.33;11.67;;;;;;;;2565566;30;149491;-73
2021/08/12 14:39:23;;;;;;;;;11.00;10.00;;;;;;;;2566896;38;150695;-72
2021/08/12 14:41:52;;;;;;;;;12.00;12.00;;;;;;;;2566588;30;149937;-73
2021/08/12 14:44:20;;;;;;;;;14.00;11.33;;;;;;;;2569620;30;151478;-72
2021/08/12 14:46:48;;;;;;;;;13.00;13.00;;;;;;;;2568212;30;151280;-73
2021/08/12 14:49:22;;;;;;;;;11.00;11.00;;;;;;;;2564670;38;149740;-72
2021/08/12 14:51:52;;;;;;;;;12.67;12.00;;;;;;;;2564646;38;151156;-73
2021/08/12 14:54:20;;;;;;;;;14.00;14.00;;;;;;;;2567662;30;151266;-73
2021/08/12 14:56:49;;;;;;;;;12.33;10.00;;;;;;;;2564476;30;149417;-72
2021/08/12 14:59:17;;;;;;;;;11.67;11.00;;;;;;;;2569669;30;150664;-72
2021/08/12 15:01:45;;;;;;;;;12.00;11.00;;;;;;;;2564618;30;150034;-71
2021/08/12 15:04:14;;;;;;;;;10.00;10.00;;;;;;;;2566409;30;151286;-72
2021/08/12 15:06:42;;;;;;;;;12.67;10.33;;;;;;;;2565351;30;151268;-72
2021/08/12 15:09:11;;;;;;;;;11.00;11.00;;;;;;;;2564505;38;149684;-71
2021/08/12 15:11:40;;;;;;;;;14.33;13.00;;;;;;;;2568335;30;151390;-71
2021/08/12 15:14:08;;;;;;;;;10.00;10.00;;;;;;;;2563543;30;152390;-71
2021/08/12 15:16:36;;;;;;;;;15.00;12.00;;;;;;;;2566666;30;149638;-71
2021/08/12 15:19:05;;;;;;;;;14.67;12.00;;;;;;;;2568031;30;151628;-71
2021/08/12 15:21:34;;;;;;;;;10.67;9.00;;;;;;;;2567716;30;152055;-72
2021/08/12 15:24:02;;;;;;;;;13.33;13.00;;;;;;;;2562899;38;150842;-71
2021/08/12 15:26:32;;;;;;;;;11.00;11.00;;;;;;;;2564854;38;151516;-71
2021/08/12 15:29:00;;;;;;;;;13.00;13.00;;;;;;;;2564917;38;149497;-69
2021/08/12 15:31:28;;;;;;;;;11.00;11.00;;;;;;;;2564149;30;150698;-71
2021/08/12 15:33:56;;;;;;;;;9.00;9.00;;;;;;;;2565802;30;151591;-71
2021/08/12 15:36:25;;;;;;;;;12.00;12.00;;;;;;;;2565259;30;149303;-71
2021/08/12 15:38:53;;;;;;;;;13.00;11.67;;;;;;;;2566716;30;150708;-72
2021/08/12 15:41:21;;;;;;;;;13.67;12.33;;;;;;;;2563874;30;152003;-71
2021/08/12 15:43:51;;;;;;;;;13.00;13.00;;;;;;;;2567507;30;149678;-71
2021/08/12 15:46:21;;;;;;;;;12.00;10.33;;;;;;;;2566346;30;151902;-71
2021/08/12 15:48:49;;;;;;;;;10.00;10.00;;;;;;;;2570243;30;149572;-71
2021/08/12 15:51:17;;;;;;;;;13.00;13.00;;;;;;;;2565384;30;151452;-71
2021/08/12 15:53:46;;;;;;;;;14.00;12.00;;;;;;;;2567342;30;152035;-72
2021/08/12 15:56:14;;;;;;;;;12.00;12.00;;;;;;;;2567566;30;149437;-72
2021/08/12 15:58:43;;;;;;;;;12.00;10.67;;;;;;;;2567298;30;150588;-72
2021/08/12 16:01:12;;;;;;;;;14.00;11.00;;;;;;;;2564830;38;151784;-73
2021/08/12 16:03:41;;;;;;;;;11.67;10.00;;;;;;;;2564805;38;149175;-74
2021/08/12 16:06:09;;;;;;;;;11.00;10.00;;;;;;;;2567934;30;150479;-73
2021/08/12 16:08:38;;;;;;;;;10.00;9.00;;;;;;;;2566599;30;149580;-72
2021/08/12 16:11:06;;;;;;;;;11.67;11.00;;;;;;;;2566919;30;151383;-72
2021/08/12 16:13:37;;;;;;;;;9.00;9.00;;;;;;;;2566951;30;151951;-79
2021/08/12 16:16:05;;;;;;;;;10.33;7.67;;;;;;;;2564899;30;149407;-77
2021/08/12 16:18:38;;;;;;;;;11.00;11.00;;;;;;;;2565802;30;151356;-75
2021/08/12 16:21:06;;;;;;;;;12.33;10.33;;;;;;;;2567402;30;152103;-76
2021/08/12 16:23:36;;;;;;;;;11.00;9.67;;;;;;;;2567462;30;149731;-74
2021/08/12 16:26:05;;;;;;;;;9.67;9.00;;;;;;;;2567290;30;151267;-75
2021/08/12 16:28:33;;;;;;;;;10.33;10.00;;;;;;;;2566276;38;152072;-75
2021/08/12 16:31:01;;;;;;;;;10.67;10.67;;;;;;;;2563834;38;151460;-77
2021/08/12 16:33:31;;;;;;;;;8.00;8.00;;;;;;;;2564638;38;151951;-74
2021/08/12 16:36:00;;;;;;;;;12.00;10.67;;;;;;;;2564273;30;149695;-73
2021/08/12 16:38:29;;;;;;;;;14.00;11.00;;;;;;;;2566273;30;151617;-73
2021/08/12 16:40:57;;;;;;;;;11.67;11.33;;;;;;;;2564206;30;151314;-73
2021/08/12 16:43:25;;;;;;;;;8.00;8.00;;;;;;;;2567880;30;149454;-73
2021/08/12 16:45:54;;;;;;;;;12.33;10.33;;;;;;;;2566451;30;150662;-78
2021/08/12 16:48:22;;;;;;;;;9.67;9.67;;;;;;;;2567584;30;151932;-72
2021/08/12 16:50:50;;;;;;;;;12.00;11.00;;;;;;;;2566939;38;149307;-73
2021/08/12 16:53:20;;;;;;;;;12.00;9.00;;;;;;;;2563570;38;151093;-74
2021/08/12 16:55:48;;;;;;;;;13.67;12.67;;;;;;;;2565739;30;150937;-73
2021/08/12 16:58:17;;;;;;;;;13.00;10.00;;;;;;;;2565024;30;150677;-73
2021/08/12 17:00:45;;;;;;;;;12.33;11.00;;;;;;;;2564098;38;151188;-72
2021/08/12 17:03:13;;;;;;;;;10.00;10.00;;;;;;;;2564201;38;150780;-73
2021/08/12 17:05:41;;;;;;;;;14.00;14.00;;;;;;;;2563422;38;153712;-73
2021/08/12 17:08:10;;;;;;;;;17.00;14.00;;;;;;;;2563626;38;152130;-73
2021/08/12 17:10:39;;;;;;;;;11.00;9.33;;;;;;;;2567709;38;150019;-74
2021/08/12 17:13:08;;;;;;;;;12.00;12.00;;;;;;;;2564714;30;152032;-74
2021/08/12 17:15:36;;;;;;;;;12.33;12.33;;;;;;;;2564633;38;150185;-73
2021/08/12 17:18:06;;;;;;;;;11.00;11.00;;;;;;;;2563719;30;151604;-74
2021/08/12 17:20:34;;;;;;;;;12.33;12.00;;;;;;;;2562362;38;151915;-73
2021/08/12 17:23:03;;;;;;;;;13.00;13.00;;;;;;;;2563394;30;149795;-73
2021/08/12 17:25:31;;;;;;;;;13.00;13.00;;;;;;;;2564622;30;151228;-74
2021/08/12 17:28:01;;;;;;;;;8.67;8.67;;;;;;;;2562080;38;152087;-73
2021/08/12 17:30:29;;;;;;;;;12.67;12.00;;;;;;;;2564344;38;149485;-72
2021/08/12 17:32:57;;;;;;;;;6.33;6.00;;;;;;;;2566654;30;151421;-74
2021/08/12 17:35:26;;;;;;;;;12.00;11.00;;;;;;;;2564880;30;149155;-73
2021/08/12 17:37:54;;;;;;;;;10.00;9.67;;;;;;;;2565025;30;151692;-73
2021/08/12 17:40:22;;;;;;;;;9.33;8.67;;;;;;;;2565861;38;151377;-73
2021/08/12 17:42:50;;;;;;;;;14.00;13.67;;;;;;;;2564666;38;149440;-75
2021/08/12 17:45:20;;;;;;;;;10.33;10.00;;;;;;;;2562852;38;151453;-74
2021/08/12 17:47:49;;;;;;;;;11.33;11.00;;;;;;;;2562830;38;152561;-73
2021/08/12 17:50:17;;;;;;;;;11.00;11.00;;;;;;;;2561726;30;149848;-74
2021/08/12 17:52:45;;;;;;;;;15.00;11.67;;;;;;;;2560862;31;151511;-74
2021/08/12 17:55:15;;;;;;;;;14.67;13.67;;;;;;;;2566389;30;151482;-74
2021/08/12 17:57:44;;;;;;;;;12.33;12.00;;;;;;;;2563700;30;151107;-75
2021/08/12 18:00:13;;;;;;;;;12.67;11.67;;;;;;;;2563469;30;152063;-74
2021/08/12 18:02:43;;;;;;;;;11.00;11.00;;;;;;;;2562821;38;149733;-74
2021/08/12 18:05:12;;;;;;;;;14.33;12.00;;;;;;;;2563901;30;151671;-74
2021/08/12 18:07:41;;;;;;;;;12.67;11.67;;;;;;;;2567353;30;151540;-74
2021/08/12 18:10:10;;;;;;;;;12.33;12.33;;;;;;;;2565721;30;149780;-74
2021/08/12 18:12:39;;;;;;;;;12.67;12.00;;;;;;;;2565299;38;152137;-74
2021/08/12 18:15:08;;;;;;;;;11.33;9.67;;;;;;;;2567386;30;151853;-74
2021/08/12 18:17:37;;;;;;;;;10.67;9.00;;;;;;;;2568783;30;150165;-73
2021/08/12 18:20:07;;;;;;;;;12.67;11.33;;;;;;;;2563368;38;151772;-74
2021/08/12 18:22:36;;;;;;;;;12.67;11.33;;;;;;;;2565524;30;149459;-74
2021/08/12 18:25:05;;;;;;;;;14.00;12.67;;;;;;;;2567345;30;150351;-74
2021/08/12 18:27:33;;;;;;;;;13.00;11.67;;;;;;;;2566056;30;152032;-74
2021/08/12 18:30:01;;;;;;;;;13.67;12.00;;;;;;;;2563958;30;149326;-74
2021/08/12 18:32:30;;;;;;;;;15.00;13.00;;;;;;;;2567991;30;150525;-74
2021/08/12 18:34:58;;;;;;;;;13.67;12.67;;;;;;;;2564679;30;151109;-74
2021/08/12 18:37:28;;;;;;;;;14.33;13.00;;;;;;;;2564312;38;150317;-74
2021/08/12 18:39:57;;;;;;;;;12.00;12.00;;;;;;;;2566160;38;151486;-74
2021/08/12 18:42:26;;;;;;;;;11.67;11.00;;;;;;;;2563413;38;149382;-74
2021/08/12 18:44:54;;;;;;;;;14.33;13.33;;;;;;;;2564563;30;151400;-73
2021/08/12 18:47:25;;;;;;;;;11.33;10.33;;;;;;;;2564312;38;152096;-73
2021/08/12 18:49:54;;;;;;;;;13.33;13.00;;;;;;;;2564700;38;149686;-74
2021/08/12 18:52:22;;;;;;;;;16.00;15.33;;;;;;;;2569239;30;151146;-74
2021/08/12 18:54:51;;;;;;;;;20.00;17.33;;;;;;;;2566706;30;151395;-74
2021/08/12 18:57:20;;;;;;;;;17.00;16.33;;;;;;;;2565958;30;149602;-79
2021/08/12 18:59:48;;;;;;;;;19.67;18.33;;;;;;;;2564211;30;151418;-76
2021/08/12 19:02:17;;;;;;;;;22.00;21.67;;;;;;;;2567636;30;149557;-74
2021/08/12 19:04:46;;;;;;;;;25.67;24.33;;;;;;;;2565143;30;151280;-78
2021/08/12 19:07:14;;;;;;;;;17.00;17.00;;;;;;;;2565842;30;151359;-75
2021/08/12 19:09:43;;;;;;;;;22.00;21.00;;;;;;;;2565265;38;149492;-76
2021/08/12 19:12:12;;;;;;;;;22.00;21.00;;;;;;;;2567048;30;151033;-77
2021/08/12 19:14:41;;;;;;;;;22.00;21.67;;;;;;;;2565485;30;151074;-77
2021/08/12 19:17:09;;;;;;;;;22.00;22.00;;;;;;;;2564715;30;149450;-77
2021/08/12 19:19:37;;;;;;;;;26.00;25.00;;;;;;;;2566157;30;150768;-74
2021/08/12 19:22:06;;;;;;;;;21.33;20.33;;;;;;;;2568953;38;151105;-76
2021/08/12 19:24:36;;;;;;;;;13.00;12.33;;;;;;;;2566032;30;150581;-75
2021/08/12 19:27:04;;;;;;;;;17.67;16.33;;;;;;;;2564121;30;150979;-74
2021/08/12 19:29:34;;;;;;;;;13.33;12.33;;;;;;;;2568310;30;149483;-76
2021/08/12 19:32:02;;;;;;;;;15.33;14.33;;;;;;;;2564386;30;151402;-75